Aérodrome :
LOGIN :

S'inscrire | Disclaimer

   EN    FR    IT 

 










Légende :    VFR   VFR Marginal   IFR   IFR Intensif   IFR Très Intensif
Visi : 
Plafond : 
>= 8 km
>= 3000ft
5 à 8 km
1000 à 3000 ft
1500m à 5 km
500 à 1000 ft
800 à 1500m
200 à 500 ft
< 800m
< 200 ft
Symboles :   Orages  Brouillard  Fortes neiges  Fortes précipitations  Vent > 20 kt
SIGMETs :   Divers  Orages  Givrage  Turbulence  Onde Orograph.  Cendres Volcan.







- Altitude de l'aérodrome : 200 ft


EBBL - Klein Brogel AB

DERNIER METAR :
  • 301203Z 20007KT 9999 FEW050 SCT250 21/07 Q1024 BLU BLU

METARs EXPIRÉS :
  • 301155Z 19007KT 9999 FEW050 SCT250 22/07 Q1024 BLU BLU
  • 301125Z 20009KT 9999 FEW090 SCT250 21/08 Q1024 BLU BLU
  • 301055Z 21010KT 9999 FEW090 SCT250 21/08 Q1024 BLU BLU
  • 301025Z 21009KT 9999 FEW090 SCT250 20/08 Q1025 BLU BLU
  • 300955Z 21009KT 9999 SCT090 19/08 Q1025 BLU BLU
  • 300925Z 20008KT 9999 BKN090 18/08 Q1025 BLU BLU

TAF TAF EBBL
Valide du 30 à 10h jusqu'au 30 à 19h UTC


300841Z 3010/3019 22010KT 9999 BKN050
BECMG 3012/3014 SCT040 SCT050
Pas de NOTAMs connus pour ce terrain.



MET'MAP, la Météo Aéronautique d'un coup d'oeil ! - Copyright ORBIFLY Décembre 2007 - Disclaimer

ORBIFLY MET'MAP TEAM :

Programmation & Développement : Alexandra Zaïnal
Conception & Développement : Baudouin d'Aumeries
Co-Programmation & Développement : Marc-Olivier Méhu
Soutien technique & logistique : Manuel Goepfert

Contact : metmap@orbifly.com




SOURCES & CREDITS :

   NOAA